sensor_id;sensor_type;location;lat;lon;timestamp;temperature;humidity
10530;DHT22;5313;48.834;9.228;2023-09-07T00:00:48;17.20;99.90
10530;DHT22;5313;48.834;9.228;2023-09-07T00:03:13;16.90;99.90
10530;DHT22;5313;48.834;9.228;2023-09-07T00:05:39;16.80;99.90
10530;DHT22;5313;48.834;9.228;2023-09-07T00:08:05;16.80;99.90
10530;DHT22;5313;48.834;9.228;2023-09-07T00:10:32;16.70;99.90
10530;DHT22;5313;48.834;9.228;2023-09-07T00:13:03;16.60;99.90
10530;DHT22;5313;48.834;9.228;2023-09-07T00:15:30;16.40;99.90
10530;DHT22;5313;48.834;9.228;2023-09-07T00:17:56;16.30;99.90
10530;DHT22;5313;48.834;9.228;2023-09-07T00:20:22;16.20;99.90
10530;DHT22;5313;48.834;9.228;2023-09-07T00:22:49;16.30;99.90
10530;DHT22;5313;48.834;9.228;2023-09-07T00:25:14;16.30;99.90
10530;DHT22;5313;48.834;9.228;2023-09-07T00:27:40;16.40;99.90
10530;DHT22;5313;48.834;9.228;2023-09-07T00:30:06;16.70;99.90
10530;DHT22;5313;48.834;9.228;2023-09-07T00:32:35;17.00;99.90
10530;DHT22;5313;48.834;9.228;2023-09-07T00:35:01;17.00;99.90
10530;DHT22;5313;48.834;9.228;2023-09-07T00:37:26;17.00;99.90
10530;DHT22;5313;48.834;9.228;2023-09-07T00:39:52;16.60;99.90
10530;DHT22;5313;48.834;9.228;2023-09-07T00:42:18;16.50;99.90
10530;DHT22;5313;48.834;9.228;2023-09-07T00:44:43;16.50;99.90
10530;DHT22;5313;48.834;9.228;2023-09-07T00:47:09;16.70;99.90
10530;DHT22;5313;48.834;9.228;2023-09-07T00:49:35;16.80;99.90
10530;DHT22;5313;48.834;9.228;2023-09-07T00:52:01;16.70;99.90
10530;DHT22;5313;48.834;9.228;2023-09-07T00:54:26;16.70;99.90
10530;DHT22;5313;48.834;9.228;2023-09-07T00:56:52;16.70;99.90
10530;DHT22;5313;48.834;9.228;2023-09-07T00:59:18;16.40;99.90
10530;DHT22;5313;48.834;9.228;2023-09-07T01:01:43;16.30;99.90
10530;DHT22;5313;48.834;9.228;2023-09-07T01:04:09;16.20;99.90
10530;DHT22;5313;48.834;9.228;2023-09-07T01:06:56;16.50;99.90
10530;DHT22;5313;48.834;9.228;2023-09-07T01:09:26;16.70;99.90
10530;DHT22;5313;48.834;9.228;2023-09-07T01:11:53;16.80;99.90
10530;DHT22;5313;48.834;9.228;2023-09-07T01:14:18;16.90;99.90
10530;DHT22;5313;48.834;9.228;2023-09-07T01:16:44;16.70;99.90
10530;DHT22;5313;48.834;9.228;2023-09-07T01:19:10;16.50;99.90
10530;DHT22;5313;48.834;9.228;2023-09-07T01:21:37;16.50;99.90
10530;DHT22;5313;48.834;9.228;2023-09-07T01:24:08;16.40;99.90
10530;DHT22;5313;48.834;9.228;2023-09-07T01:26:35;16.50;99.90
10530;DHT22;5313;48.834;9.228;2023-09-07T01:29:04;16.50;99.90
10530;DHT22;5313;48.834;9.228;2023-09-07T01:31:30;16.50;99.90
10530;DHT22;5313;48.834;9.228;2023-09-07T01:33:56;16.40;99.90
10530;DHT22;5313;48.834;9.228;2023-09-07T01:36:21;16.40;99.90
10530;DHT22;5313;48.834;9.228;2023-09-07T01:38:47;16.30;99.90
10530;DHT22;5313;48.834;9.228;2023-09-07T01:41:12;16.20;99.90
10530;DHT22;5313;48.834;9.228;2023-09-07T01:43:39;16.40;99.90
10530;DHT22;5313;48.834;9.228;2023-09-07T01:46:04;16.30;99.90
10530;DHT22;5313;48.834;9.228;2023-09-07T01:48:30;16.40;99.90
10530;DHT22;5313;48.834;9.228;2023-09-07T01:50:55;16.10;99.90
10530;DHT22;5313;48.834;9.228;2023-09-07T01:53:21;15.90;99.90
10530;DHT22;5313;48.834;9.228;2023-09-07T01:55:46;15.80;99.90
10530;DHT22;5313;48.834;9.228;2023-09-07T01:58:13;15.70;99.90
10530;DHT22;5313;48.834;9.228;2023-09-07T02:00:39;15.70;99.90
10530;DHT22;5313;48.834;9.228;2023-09-07T02:03:05;15.80;99.90
10530;DHT22;5313;48.834;9.228;2023-09-07T02:05:31;15.70;99.90
10530;DHT22;5313;48.834;9.228;2023-09-07T02:07:59;15.70;99.90
10530;DHT22;5313;48.834;9.228;2023-09-07T02:10:25;15.90;99.90
10530;DHT22;5313;48.834;9.228;2023-09-07T02:12:50;16.00;99.90
10530;DHT22;5313;48.834;9.228;2023-09-07T02:15:17;16.00;99.90
10530;DHT22;5313;48.834;9.228;2023-09-07T02:17:42;16.00;99.90
10530;DHT22;5313;48.834;9.228;2023-09-07T02:20:11;15.70;99.90
10530;DHT22;5313;48.834;9.228;2023-09-07T02:22:38;15.60;99.90
10530;DHT22;5313;48.834;9.228;2023-09-07T02:25:03;15.70;99.90
10530;DHT22;5313;48.834;9.228;2023-09-07T02:27:31;15.50;99.90
10530;DHT22;5313;48.834;9.228;2023-09-07T02:29:57;15.40;99.90
10530;DHT22;5313;48.834;9.228;2023-09-07T02:32:23;15.30;99.90
10530;DHT22;5313;48.834;9.228;2023-09-07T02:34:48;15.40;99.90
10530;DHT22;5313;48.834;9.228;2023-09-07T02:37:14;15.50;99.90
10530;DHT22;5313;48.834;9.228;2023-09-07T02:39:41;15.40;99.90
10530;DHT22;5313;48.834;9.228;2023-09-07T02:42:07;15.30;99.90
10530;DHT22;5313;48.834;9.228;2023-09-07T02:44:32;16.00;99.90
10530;DHT22;5313;48.834;9.228;2023-09-07T02:46:58;17.00;99.90
10530;DHT22;5313;48.834;9.228;2023-09-07T02:49:23;17.40;99.90
10530;DHT22;5313;48.834;9.228;2023-09-07T02:51:49;17.30;99.90
10530;DHT22;5313;48.834;9.228;2023-09-07T02:54:14;17.60;99.90
10530;DHT22;5313;48.834;9.228;2023-09-07T02:56:40;17.60;99.90
10530;DHT22;5313;48.834;9.228;2023-09-07T02:59:05;17.10;99.90
10530;DHT22;5313;48.834;9.228;2023-09-07T03:01:31;17.40;99.90
10530;DHT22;5313;48.834;9.228;2023-09-07T03:03:57;17.50;99.90
10530;DHT22;5313;48.834;9.228;2023-09-07T03:06:22;17.40;99.90
10530;DHT22;5313;48.834;9.228;2023-09-07T03:08:48;17.50;99.90
10530;DHT22;5313;48.834;9.228;2023-09-07T03:11:13;17.40;99.90
10530;DHT22;5313;48.834;9.228;2023-09-07T03:13:39;17.20;99.90
10530;DHT22;5313;48.834;9.228;2023-09-07T03:16:05;17.40;99.90
10530;DHT22;5313;48.834;9.228;2023-09-07T03:18:31;17.60;99.90
10530;DHT22;5313;48.834;9.228;2023-09-07T03:21:02;17.40;99.90
10530;DHT22;5313;48.834;9.228;2023-09-07T03:23:32;17.30;99.90
10530;DHT22;5313;48.834;9.228;2023-09-07T03:25:58;17.30;99.90
10530;DHT22;5313;48.834;9.228;2023-09-07T03:28:24;17.30;99.90
10530;DHT22;5313;48.834;9.228;2023-09-07T03:30:55;17.30;99.90
10530;DHT22;5313;48.834;9.228;2023-09-07T03:33:22;17.10;99.90
10530;DHT22;5313;48.834;9.228;2023-09-07T03:35:47;17.10;99.90
10530;DHT22;5313;48.834;9.228;2023-09-07T03:38:13;16.60;99.90
10530;DHT22;5313;48.834;9.228;2023-09-07T03:40:39;16.30;99.90
10530;DHT22;5313;48.834;9.228;2023-09-07T03:43:04;16.70;99.90
10530;DHT22;5313;48.834;9.228;2023-09-07T03:45:30;17.10;99.90
10530;DHT22;5313;48.834;9.228;2023-09-07T03:47:56;17.00;99.90
10530;DHT22;5313;48.834;9.228;2023-09-07T03:50:21;16.60;99.90
10530;DHT22;5313;48.834;9.228;2023-09-07T03:52:47;16.50;99.90
10530;DHT22;5313;48.834;9.228;2023-09-07T03:55:12;16.70;99.90
10530;DHT22;5313;48.834;9.228;2023-09-07T03:57:38;17.10;99.90
10530;DHT22;5313;48.834;9.228;2023-09-07T04:00:04;17.30;99.90
10530;DHT22;5313;48.834;9.228;2023-09-07T04:02:33;16.90;99.90
10530;DHT22;5313;48.834;9.228;2023-09-07T04:04:58;17.10;99.90
10530;DHT22;5313;48.834;9.228;2023-09-07T04:07:27;16.80;99.90
10530;DHT22;5313;48.834;9.228;2023-09-07T04:09:52;17.00;99.90
10530;DHT22;5313;48.834;9.228;2023-09-07T04:12:18;16.80;99.90
10530;DHT22;5313;48.834;9.228;2023-09-07T04:14:43;16.10;99.90
10530;DHT22;5313;48.834;9.228;2023-09-07T04:17:10;15.90;99.90
10530;DHT22;5313;48.834;9.228;2023-09-07T04:19:35;16.20;99.90
10530;DHT22;5313;48.834;9.228;2023-09-07T04:22:01;16.60;99.90
10530;DHT22;5313;48.834;9.228;2023-09-07T04:24:27;16.70;99.90
10530;DHT22;5313;48.834;9.228;2023-09-07T04:26:53;17.00;99.90
10530;DHT22;5313;48.834;9.228;2023-09-07T04:29:18;16.40;99.90
10530;DHT22;5313;48.834;9.228;2023-09-07T04:31:44;16.20;99.90
10530;DHT22;5313;48.834;9.228;2023-09-07T04:34:09;16.20;99.90
10530;DHT22;5313;48.834;9.228;2023-09-07T04:36:35;16.20;99.90
10530;DHT22;5313;48.834;9.228;2023-09-07T04:39:01;16.40;99.90
10530;DHT22;5313;48.834;9.228;2023-09-07T04:41:28;16.30;99.90
10530;DHT22;5313;48.834;9.228;2023-09-07T04:43:54;16.30;99.90
10530;DHT22;5313;48.834;9.228;2023-09-07T04:46:22;16.60;99.90
10530;DHT22;5313;48.834;9.228;2023-09-07T04:48:48;16.40;99.90
10530;DHT22;5313;48.834;9.228;2023-09-07T04:51:13;16.60;99.90
10530;DHT22;5313;48.834;9.228;2023-09-07T04:53:39;16.20;99.90
10530;DHT22;5313;48.834;9.228;2023-09-07T04:56:06;16.20;99.90
10530;DHT22;5313;48.834;9.228;2023-09-07T04:58:32;16.40;99.90
10530;DHT22;5313;48.834;9.228;2023-09-07T05:01:08;16.40;99.90
10530;DHT22;5313;48.834;9.228;2023-09-07T05:03:34;16.60;99.90
10530;DHT22;5313;48.834;9.228;2023-09-07T05:06:00;16.30;99.90
10530;DHT22;5313;48.834;9.228;2023-09-07T05:08:26;16.40;99.90
10530;DHT22;5313;48.834;9.228;2023-09-07T05:11:09;16.40;99.90
10530;DHT22;5313;48.834;9.228;2023-09-07T05:13:35;16.10;99.90
10530;DHT22;5313;48.834;9.228;2023-09-07T05:16:01;16.30;99.90
10530;DHT22;5313;48.834;9.228;2023-09-07T05:18:27;15.80;99.90
10530;DHT22;5313;48.834;9.228;2023-09-07T05:20:52;15.30;99.90
10530;DHT22;5313;48.834;9.228;2023-09-07T05:23:22;14.80;99.90
10530;DHT22;5313;48.834;9.228;2023-09-07T05:25:49;14.50;99.90
10530;DHT22;5313;48.834;9.228;2023-09-07T05:28:17;14.30;99.90
10530;DHT22;5313;48.834;9.228;2023-09-07T05:30:43;14.20;99.90
10530;DHT22;5313;48.834;9.228;2023-09-07T05:33:13;14.10;99.90
10530;DHT22;5313;48.834;9.228;2023-09-07T05:35:39;14.10;99.90
10530;DHT22;5313;48.834;9.228;2023-09-07T05:38:05;14.10;99.90
10530;DHT22;5313;48.834;9.228;2023-09-07T05:40:35;14.20;99.90
10530;DHT22;5313;48.834;9.228;2023-09-07T05:43:01;14.20;99.90
10530;DHT22;5313;48.834;9.228;2023-09-07T05:45:26;14.10;99.90
10530;DHT22;5313;48.834;9.228;2023-09-07T05:47:52;14.10;99.90
10530;DHT22;5313;48.834;9.228;2023-09-07T05:50:17;14.10;99.90
10530;DHT22;5313;48.834;9.228;2023-09-07T05:52:43;14.20;99.90
10530;DHT22;5313;48.834;9.228;2023-09-07T05:55:08;14.20;99.90
10530;DHT22;5313;48.834;9.228;2023-09-07T05:57:34;14.40;99.90
10530;DHT22;5313;48.834;9.228;2023-09-07T05:59:59;14.50;99.90
10530;DHT22;5313;48.834;9.228;2023-09-07T06:02:25;14.50;99.90
10530;DHT22;5313;48.834;9.228;2023-09-07T06:04:51;14.50;99.90
10530;DHT22;5313;48.834;9.228;2023-09-07T06:07:16;14.60;99.90
10530;DHT22;5313;48.834;9.228;2023-09-07T06:09:42;14.80;99.90
10530;DHT22;5313;48.834;9.228;2023-09-07T06:12:07;15.00;99.90
10530;DHT22;5313;48.834;9.228;2023-09-07T06:14:34;15.10;99.90
10530;DHT22;5313;48.834;9.228;2023-09-07T06:16:59;15.30;99.90
10530;DHT22;5313;48.834;9.228;2023-09-07T06:19:24;15.30;99.90
10530;DHT22;5313;48.834;9.228;2023-09-07T06:21:50;15.30;99.90
10530;DHT22;5313;48.834;9.228;2023-09-07T06:24:16;15.30;99.90
10530;DHT22;5313;48.834;9.228;2023-09-07T06:26:42;15.20;99.90
10530;DHT22;5313;48.834;9.228;2023-09-07T06:29:09;15.30;99.90
10530;DHT22;5313;48.834;9.228;2023-09-07T06:31:35;15.40;99.90
10530;DHT22;5313;48.834;9.228;2023-09-07T06:34:00;15.60;99.90
10530;DHT22;5313;48.834;9.228;2023-09-07T06:36:26;15.70;99.90
10530;DHT22;5313;48.834;9.228;2023-09-07T06:38:51;15.80;99.90
10530;DHT22;5313;48.834;9.228;2023-09-07T06:41:17;15.90;99.90
10530;DHT22;5313;48.834;9.228;2023-09-07T06:43:42;16.00;99.90
10530;DHT22;5313;48.834;9.228;2023-09-07T06:46:09;16.10;99.90
10530;DHT22;5313;48.834;9.228;2023-09-07T06:48:35;16.20;99.90
10530;DHT22;5313;48.834;9.228;2023-09-07T06:51:04;16.20;99.90
10530;DHT22;5313;48.834;9.228;2023-09-07T06:53:30;16.30;99.90
10530;DHT22;5313;48.834;9.228;2023-09-07T06:56:03;16.40;99.90
10530;DHT22;5313;48.834;9.228;2023-09-07T06:58:29;16.50;99.90
10530;DHT22;5313;48.834;9.228;2023-09-07T07:01:01;16.60;99.90
10530;DHT22;5313;48.834;9.228;2023-09-07T07:03:29;16.80;99.90
10530;DHT22;5313;48.834;9.228;2023-09-07T07:05:55;16.90;99.90
10530;DHT22;5313;48.834;9.228;2023-09-07T07:08:21;17.10;99.90
10530;DHT22;5313;48.834;9.228;2023-09-07T07:10:47;17.20;99.90
10530;DHT22;5313;48.834;9.228;2023-09-07T07:13:12;17.30;99.90
10530;DHT22;5313;48.834;9.228;2023-09-07T07:15:38;17.40;99.90
10530;DHT22;5313;48.834;9.228;2023-09-07T07:18:04;17.60;99.90
10530;DHT22;5313;48.834;9.228;2023-09-07T07:20:41;17.80;99.90
10530;DHT22;5313;48.834;9.228;2023-09-07T07:23:07;17.80;99.90
10530;DHT22;5313;48.834;9.228;2023-09-07T07:25:33;17.90;99.90
10530;DHT22;5313;48.834;9.228;2023-09-07T07:28:03;18.30;99.90
10530;DHT22;5313;48.834;9.228;2023-09-07T07:30:31;18.50;99.90
10530;DHT22;5313;48.834;9.228;2023-09-07T07:32:57;18.60;99.90
10530;DHT22;5313;48.834;9.228;2023-09-07T07:35:23;18.70;99.90
10530;DHT22;5313;48.834;9.228;2023-09-07T07:37:50;18.60;99.90
10530;DHT22;5313;48.834;9.228;2023-09-07T07:40:16;18.70;99.90
10530;DHT22;5313;48.834;9.228;2023-09-07T07:42:43;18.90;99.90
10530;DHT22;5313;48.834;9.228;2023-09-07T07:45:09;19.10;99.90
10530;DHT22;5313;48.834;9.228;2023-09-07T07:47:34;19.30;99.90
10530;DHT22;5313;48.834;9.228;2023-09-07T07:50:00;19.40;99.90
10530;DHT22;5313;48.834;9.228;2023-09-07T07:52:25;19.50;99.90
10530;DHT22;5313;48.834;9.228;2023-09-07T07:54:52;19.60;99.90
10530;DHT22;5313;48.834;9.228;2023-09-07T07:57:18;19.60;99.90
10530;DHT22;5313;48.834;9.228;2023-09-07T07:59:43;19.70;99.90
10530;DHT22;5313;48.834;9.228;2023-09-07T08:02:09;19.80;99.90
10530;DHT22;5313;48.834;9.228;2023-09-07T08:04:34;19.80;99.90
10530;DHT22;5313;48.834;9.228;2023-09-07T08:07:01;20.00;99.90
10530;DHT22;5313;48.834;9.228;2023-09-07T08:09:30;19.90;99.90
10530;DHT22;5313;48.834;9.228;2023-09-07T08:11:56;20.10;99.90
10530;DHT22;5313;48.834;9.228;2023-09-07T08:14:23;20.30;99.90
10530;DHT22;5313;48.834;9.228;2023-09-07T08:16:49;20.30;99.90
10530;DHT22;5313;48.834;9.228;2023-09-07T08:19:15;20.40;99.90
10530;DHT22;5313;48.834;9.228;2023-09-07T08:21:40;20.50;99.90
10530;DHT22;5313;48.834;9.228;2023-09-07T08:24:08;20.50;99.90
10530;DHT22;5313;48.834;9.228;2023-09-07T08:26:35;20.70;99.90
10530;DHT22;5313;48.834;9.228;2023-09-07T08:29:00;20.70;99.90
10530;DHT22;5313;48.834;9.228;2023-09-07T08:31:37;20.80;99.90
10530;DHT22;5313;48.834;9.228;2023-09-07T08:34:05;20.90;99.90
10530;DHT22;5313;48.834;9.228;2023-09-07T08:36:31;21.00;99.90
10530;DHT22;5313;48.834;9.228;2023-09-07T08:39:06;21.00;99.90
10530;DHT22;5313;48.834;9.228;2023-09-07T08:41:37;22.40;99.90
10530;DHT22;5313;48.834;9.228;2023-09-07T08:44:10;21.20;99.90
10530;DHT22;5313;48.834;9.228;2023-09-07T08:46:37;19.80;99.90
10530;DHT22;5313;48.834;9.228;2023-09-07T08:49:03;21.60;99.90
10530;DHT22;5313;48.834;9.228;2023-09-07T08:51:30;21.70;99.90
10530;DHT22;5313;48.834;9.228;2023-09-07T08:53:57;21.60;99.90
10530;DHT22;5313;48.834;9.228;2023-09-07T08:56:24;21.80;99.90
10530;DHT22;5313;48.834;9.228;2023-09-07T08:58:50;21.80;99.90
10530;DHT22;5313;48.834;9.228;2023-09-07T09:01:16;21.90;99.90
10530;DHT22;5313;48.834;9.228;2023-09-07T09:03:42;21.80;99.90
10530;DHT22;5313;48.834;9.228;2023-09-07T09:06:08;22.00;99.90
10530;DHT22;5313;48.834;9.228;2023-09-07T09:08:44;23.40;99.90
10530;DHT22;5313;48.834;9.228;2023-09-07T09:11:10;22.50;99.90
10530;DHT22;5313;48.834;9.228;2023-09-07T09:13:36;22.90;99.90
10530;DHT22;5313;48.834;9.228;2023-09-07T09:16:02;24.00;99.90
10530;DHT22;5313;48.834;9.228;2023-09-07T09:18:28;23.30;99.90
10530;DHT22;5313;48.834;9.228;2023-09-07T09:20:55;23.60;99.90
10530;DHT22;5313;48.834;9.228;2023-09-07T09:23:21;23.50;99.90
10530;DHT22;5313;48.834;9.228;2023-09-07T09:25:49;23.70;99.90
10530;DHT22;5313;48.834;9.228;2023-09-07T09:28:15;23.90;99.90
10530;DHT22;5313;48.834;9.228;2023-09-07T09:30:41;23.70;99.90
10530;DHT22;5313;48.834;9.228;2023-09-07T09:33:10;23.80;99.90
10530;DHT22;5313;48.834;9.228;2023-09-07T09:35:37;24.10;99.90
10530;DHT22;5313;48.834;9.228;2023-09-07T09:38:04;24.10;99.90
10530;DHT22;5313;48.834;9.228;2023-09-07T09:40:31;24.00;99.90
10530;DHT22;5313;48.834;9.228;2023-09-07T09:42:57;23.90;99.90
10530;DHT22;5313;48.834;9.228;2023-09-07T09:45:23;23.90;99.90
10530;DHT22;5313;48.834;9.228;2023-09-07T09:47:52;24.10;99.90
10530;DHT22;5313;48.834;9.228;2023-09-07T09:50:20;24.30;99.90
10530;DHT22;5313;48.834;9.228;2023-09-07T09:52:46;24.60;99.90
10530;DHT22;5313;48.834;9.228;2023-09-07T09:55:13;26.50;99.90
10530;DHT22;5313;48.834;9.228;2023-09-07T09:57:39;24.70;99.90
10530;DHT22;5313;48.834;9.228;2023-09-07T10:00:06;25.20;99.90
10530;DHT22;5313;48.834;9.228;2023-09-07T10:05:24;25.90;99.90
10530;DHT22;5313;48.834;9.228;2023-09-07T10:07:51;25.60;99.90
10530;DHT22;5313;48.834;9.228;2023-09-07T10:10:18;25.50;99.90
10530;DHT22;5313;48.834;9.228;2023-09-07T10:12:50;25.60;99.90
10530;DHT22;5313;48.834;9.228;2023-09-07T10:15:26;25.50;99.90
10530;DHT22;5313;48.834;9.228;2023-09-07T10:20:48;25.50;99.90
10530;DHT22;5313;48.834;9.228;2023-09-07T10:23:14;26.00;99.90
10530;DHT22;5313;48.834;9.228;2023-09-07T10:25:40;27.50;99.90
10530;DHT22;5313;48.834;9.228;2023-09-07T10:28:05;26.70;99.90
10530;DHT22;5313;48.834;9.228;2023-09-07T10:30:31;27.10;99.90
10530;DHT22;5313;48.834;9.228;2023-09-07T10:32:58;27.10;99.90
10530;DHT22;5313;48.834;9.228;2023-09-07T10:35:23;27.20;99.90
10530;DHT22;5313;48.834;9.228;2023-09-07T10:37:51;26.70;99.90
10530;DHT22;5313;48.834;9.228;2023-09-07T10:40:21;26.40;99.90
10530;DHT22;5313;48.834;9.228;2023-09-07T10:42:47;26.50;99.90
10530;DHT22;5313;48.834;9.228;2023-09-07T10:45:14;26.70;99.90
10530;DHT22;5313;48.834;9.228;2023-09-07T10:47:45;26.90;99.90
10530;DHT22;5313;48.834;9.228;2023-09-07T10:50:14;27.10;99.90
10530;DHT22;5313;48.834;9.228;2023-09-07T10:52:43;26.80;99.90
10530;DHT22;5313;48.834;9.228;2023-09-07T10:55:10;27.20;99.90
10530;DHT22;5313;48.834;9.228;2023-09-07T10:57:46;27.00;99.90
10530;DHT22;5313;48.834;9.228;2023-09-07T11:00:13;26.80;99.90
10530;DHT22;5313;48.834;9.228;2023-09-07T11:02:40;27.10;99.90
10530;DHT22;5313;48.834;9.228;2023-09-07T11:05:06;27.20;99.90
10530;DHT22;5313;48.834;9.228;2023-09-07T11:07:33;27.10;99.90
10530;DHT22;5313;48.834;9.228;2023-09-07T11:09:58;27.40;99.90
10530;DHT22;5313;48.834;9.228;2023-09-07T11:12:24;27.10;99.90
10530;DHT22;5313;48.834;9.228;2023-09-07T11:14:51;27.20;99.90
10530;DHT22;5313;48.834;9.228;2023-09-07T11:17:17;27.70;99.90
10530;DHT22;5313;48.834;9.228;2023-09-07T11:19:43;27.90;99.90
10530;DHT22;5313;48.834;9.228;2023-09-07T11:22:12;27.80;99.90
10530;DHT22;5313;48.834;9.228;2023-09-07T11:24:37;28.10;99.90
10530;DHT22;5313;48.834;9.228;2023-09-07T11:27:03;28.00;99.90
10530;DHT22;5313;48.834;9.228;2023-09-07T11:29:31;28.40;99.90
10530;DHT22;5313;48.834;9.228;2023-09-07T11:32:10;28.40;99.90
10530;DHT22;5313;48.834;9.228;2023-09-07T11:34:47;27.80;99.90
10530;DHT22;5313;48.834;9.228;2023-09-07T11:37:14;28.40;99.90
10530;DHT22;5313;48.834;9.228;2023-09-07T11:39:40;28.10;99.90
10530;DHT22;5313;48.834;9.228;2023-09-07T11:42:05;28.50;99.90
10530;DHT22;5313;48.834;9.228;2023-09-07T11:44:31;28.60;99.90
10530;DHT22;5313;48.834;9.228;2023-09-07T11:46:56;28.70;99.90
10530;DHT22;5313;48.834;9.228;2023-09-07T11:49:22;28.70;99.90
10530;DHT22;5313;48.834;9.228;2023-09-07T11:51:47;28.80;99.90
10530;DHT22;5313;48.834;9.228;2023-09-07T11:54:13;29.10;99.30
10530;DHT22;5313;48.834;9.228;2023-09-07T11:56:38;28.80;99.30
10530;DHT22;5313;48.834;9.228;2023-09-07T11:59:08;29.10;99.90
10530;DHT22;5313;48.834;9.228;2023-09-07T12:01:34;28.70;99.90
10530;DHT22;5313;48.834;9.228;2023-09-07T12:04:00;28.80;99.90
10530;DHT22;5313;48.834;9.228;2023-09-07T12:06:26;29.10;99.90
10530;DHT22;5313;48.834;9.228;2023-09-07T12:11:24;29.40;99.40
10530;DHT22;5313;48.834;9.228;2023-09-07T12:13:50;29.20;98.70
10530;DHT22;5313;48.834;9.228;2023-09-07T12:16:15;29.00;98.70
10530;DHT22;5313;48.834;9.228;2023-09-07T12:18:41;29.20;99.90
10530;DHT22;5313;48.834;9.228;2023-09-07T12:21:06;29.40;98.40
10530;DHT22;5313;48.834;9.228;2023-09-07T12:23:33;29.70;98.70
10530;DHT22;5313;48.834;9.228;2023-09-07T12:26:00;29.80;97.50
10530;DHT22;5313;48.834;9.228;2023-09-07T12:28:26;29.80;97.60
10530;DHT22;5313;48.834;9.228;2023-09-07T12:30:51;29.50;98.20
10530;DHT22;5313;48.834;9.228;2023-09-07T12:33:17;30.30;95.60
10530;DHT22;5313;48.834;9.228;2023-09-07T12:35:42;30.60;94.70
10530;DHT22;5313;48.834;9.228;2023-09-07T12:38:08;30.90;94.20
10530;DHT22;5313;48.834;9.228;2023-09-07T12:40:35;30.50;94.50
10530;DHT22;5313;48.834;9.228;2023-09-07T12:43:02;30.70;94.70
10530;DHT22;5313;48.834;9.228;2023-09-07T12:45:27;30.70;94.20
10530;DHT22;5313;48.834;9.228;2023-09-07T12:47:53;30.90;93.10
10530;DHT22;5313;48.834;9.228;2023-09-07T12:50:18;30.60;93.00
10530;DHT22;5313;48.834;9.228;2023-09-07T12:52:44;30.50;93.20
10530;DHT22;5313;48.834;9.228;2023-09-07T12:55:09;31.90;93.20
10530;DHT22;5313;48.834;9.228;2023-09-07T12:57:35;31.10;91.10
10530;DHT22;5313;48.834;9.228;2023-09-07T13:00:03;31.00;90.50
10530;DHT22;5313;48.834;9.228;2023-09-07T13:02:29;31.30;89.90
10530;DHT22;5313;48.834;9.228;2023-09-07T13:04:55;31.30;89.70
10530;DHT22;5313;48.834;9.228;2023-09-07T13:07:21;31.80;87.80
10530;DHT22;5313;48.834;9.228;2023-09-07T13:09:47;31.20;89.50
10530;DHT22;5313;48.834;9.228;2023-09-07T13:12:12;30.50;90.70
10530;DHT22;5313;48.834;9.228;2023-09-07T13:14:38;30.70;91.00
10530;DHT22;5313;48.834;9.228;2023-09-07T13:17:03;30.60;91.00
10530;DHT22;5313;48.834;9.228;2023-09-07T13:19:29;30.40;90.80
10530;DHT22;5313;48.834;9.228;2023-09-07T13:21:54;30.60;91.30
10530;DHT22;5313;48.834;9.228;2023-09-07T13:24:20;30.60;91.70
10530;DHT22;5313;48.834;9.228;2023-09-07T13:26:48;30.90;91.50
10530;DHT22;5313;48.834;9.228;2023-09-07T13:29:14;30.90;88.70
10530;DHT22;5313;48.834;9.228;2023-09-07T13:31:39;31.10;89.70
10530;DHT22;5313;48.834;9.228;2023-09-07T13:34:05;30.90;90.00
10530;DHT22;5313;48.834;9.228;2023-09-07T13:36:30;30.70;90.60
10530;DHT22;5313;48.834;9.228;2023-09-07T13:38:56;31.00;90.40
10530;DHT22;5313;48.834;9.228;2023-09-07T13:41:23;31.20;89.70
10530;DHT22;5313;48.834;9.228;2023-09-07T13:43:48;31.60;89.90
10530;DHT22;5313;48.834;9.228;2023-09-07T13:46:14;31.80;87.30
10530;DHT22;5313;48.834;9.228;2023-09-07T13:48:39;31.90;87.40
10530;DHT22;5313;48.834;9.228;2023-09-07T13:51:05;31.80;85.40
10530;DHT22;5313;48.834;9.228;2023-09-07T13:53:31;33.30;88.80
10530;DHT22;5313;48.834;9.228;2023-09-07T13:55:57;31.20;89.10
10530;DHT22;5313;48.834;9.228;2023-09-07T13:58:22;31.20;86.60
10530;DHT22;5313;48.834;9.228;2023-09-07T14:00:48;31.10;86.50
10530;DHT22;5313;48.834;9.228;2023-09-07T14:03:13;31.30;85.10
10530;DHT22;5313;48.834;9.228;2023-09-07T14:05:39;31.20;87.70
10530;DHT22;5313;48.834;9.228;2023-09-07T14:08:05;31.80;82.70
10530;DHT22;5313;48.834;9.228;2023-09-07T14:10:30;31.60;82.40
10530;DHT22;5313;48.834;9.228;2023-09-07T14:12:56;31.40;81.20
10530;DHT22;5313;48.834;9.228;2023-09-07T14:15:21;33.30;84.80
10530;DHT22;5313;48.834;9.228;2023-09-07T14:17:47;31.30;82.90
10530;DHT22;5313;48.834;9.228;2023-09-07T14:20:12;31.20;82.00
10530;DHT22;5313;48.834;9.228;2023-09-07T14:22:39;30.80;84.40
10530;DHT22;5313;48.834;9.228;2023-09-07T14:25:04;30.90;85.50
10530;DHT22;5313;48.834;9.228;2023-09-07T14:27:30;31.00;84.20
10530;DHT22;5313;48.834;9.228;2023-09-07T14:29:55;31.20;86.70
10530;DHT22;5313;48.834;9.228;2023-09-07T14:32:21;31.70;84.40
10530;DHT22;5313;48.834;9.228;2023-09-07T14:34:46;31.80;82.40
10530;DHT22;5313;48.834;9.228;2023-09-07T14:37:12;31.40;84.30
10530;DHT22;5313;48.834;9.228;2023-09-07T14:39:37;31.20;84.30
10530;DHT22;5313;48.834;9.228;2023-09-07T14:42:03;31.00;85.60
10530;DHT22;5313;48.834;9.228;2023-09-07T14:44:31;31.40;83.20
10530;DHT22;5313;48.834;9.228;2023-09-07T14:46:57;31.10;83.70
10530;DHT22;5313;48.834;9.228;2023-09-07T14:49:22;30.80;85.30
10530;DHT22;5313;48.834;9.228;2023-09-07T14:51:48;30.90;87.00
10530;DHT22;5313;48.834;9.228;2023-09-07T14:54:13;30.80;86.80
10530;DHT22;5313;48.834;9.228;2023-09-07T14:56:39;30.50;86.40
10530;DHT22;5313;48.834;9.228;2023-09-07T14:59:05;30.20;86.60
10530;DHT22;5313;48.834;9.228;2023-09-07T15:01:31;30.20;87.40
10530;DHT22;5313;48.834;9.228;2023-09-07T15:03:57;30.20;87.80
10530;DHT22;5313;48.834;9.228;2023-09-07T15:06:22;30.80;88.20
10530;DHT22;5313;48.834;9.228;2023-09-07T15:08:48;29.80;88.30
10530;DHT22;5313;48.834;9.228;2023-09-07T15:11:15;29.90;87.80
10530;DHT22;5313;48.834;9.228;2023-09-07T15:13:41;29.60;88.70
10530;DHT22;5313;48.834;9.228;2023-09-07T15:16:07;29.70;88.70
10530;DHT22;5313;48.834;9.228;2023-09-07T15:18:34;29.70;88.00
10530;DHT22;5313;48.834;9.228;2023-09-07T15:20:59;29.50;89.00
10530;DHT22;5313;48.834;9.228;2023-09-07T15:23:25;29.20;88.70
10530;DHT22;5313;48.834;9.228;2023-09-07T15:25:51;29.20;89.10
10530;DHT22;5313;48.834;9.228;2023-09-07T15:28:18;29.20;90.00
10530;DHT22;5313;48.834;9.228;2023-09-07T15:30:43;29.30;90.00
10530;DHT22;5313;48.834;9.228;2023-09-07T15:33:09;29.30;89.10
10530;DHT22;5313;48.834;9.228;2023-09-07T15:35:34;31.90;90.30
10530;DHT22;5313;48.834;9.228;2023-09-07T15:38:00;32.40;90.40
10530;DHT22;5313;48.834;9.228;2023-09-07T15:40:25;29.20;87.10
10530;DHT22;5313;48.834;9.228;2023-09-07T15:42:51;29.20;87.00
10530;DHT22;5313;48.834;9.228;2023-09-07T15:45:16;29.10;87.00
10530;DHT22;5313;48.834;9.228;2023-09-07T15:47:42;29.10;86.70